Time;durP1;ratioP1;P1;durP2;ratioP2;P2;SDS_P1;SDS_P2;PMS_P1;PMS_P2;Temp;Humidity;BMP_temperature;BMP_pressure;BME280_temperature;BME280_humidity;BME280_pressure;Samples;Min_cycle;Max_cycle;Signal;HPM_P1;HPM_P2
2021/07/11 00:00:24;;;;;;;2.33;2.13;;;17.50;99.90;;;;;;5056162;28;20020;-89
2021/07/11 00:02:50;;;;;;;4.00;2.22;;;17.50;99.90;;;;;;5055919;28;20040;-87
2021/07/11 00:05:18;;;;;;;4.38;2.50;;;17.50;99.90;;;;;;5055765;28;20017;-91
2021/07/11 00:07:43;;;;;;;3.20;2.90;;;17.50;99.90;;;;;;5059297;28;20029;-90
2021/07/11 00:10:10;;;;;;;4.15;3.25;;;17.50;99.90;;;;;;5059984;28;20036;-90
2021/07/11 00:12:37;;;;;;;3.58;3.03;;;17.50;99.90;;;;;;5060011;28;20074;-87
2021/07/11 00:15:06;;;;;;;3.80;2.67;;;17.40;99.90;;;;;;5059576;28;20468;-88
2021/07/11 00:17:32;;;;;;;4.15;2.65;;;17.40;99.90;;;;;;5059692;28;20428;-87
2021/07/11 00:19:57;;;;;;;3.15;2.88;;;17.40;99.90;;;;;;5059840;28;20123;-88
2021/07/11 00:22:23;;;;;;;3.85;3.00;;;17.40;99.90;;;;;;5059593;28;20043;-88
2021/07/11 00:24:50;;;;;;;4.85;3.20;;;17.40;99.90;;;;;;5059680;28;20020;-87
2021/07/11 00:27:16;;;;;;;4.32;2.85;;;17.40;99.90;;;;;;5059623;28;20036;-88
2021/07/11 00:29:42;;;;;;;4.50;2.85;;;17.30;99.90;;;;;;5059710;28;20373;-88
2021/07/11 00:32:08;;;;;;;5.63;2.88;;;17.30;99.90;;;;;;5059433;28;20441;-88
2021/07/11 00:34:34;;;;;;;5.63;2.70;;;17.30;99.90;;;;;;5059435;28;20017;-90
2021/07/11 00:37:00;;;;;;;2.88;2.58;;;17.40;99.90;;;;;;5059409;28;20035;-91
2021/07/11 00:39:26;;;;;;;4.18;2.70;;;17.40;99.90;;;;;;5059423;28;20383;-88
2021/07/11 00:41:52;;;;;;;3.60;2.80;;;17.40;99.90;;;;;;5059177;28;20190;-89
2021/07/11 00:44:17;;;;;;;4.25;2.42;;;17.50;99.90;;;;;;5059155;28;20021;-88
2021/07/11 00:46:45;;;;;;;4.57;3.00;;;17.50;99.90;;;;;;5059210;28;20033;-90
2021/07/11 00:49:11;;;;;;;4.63;2.40;;;17.50;99.90;;;;;;5059275;28;20464;-90
2021/07/11 00:51:36;;;;;;;3.58;2.75;;;17.50;99.90;;;;;;5059317;28;20464;-87
2021/07/11 00:54:02;;;;;;;3.88;2.67;;;17.30;99.90;;;;;;5058965;28;20023;-88
2021/07/11 00:56:28;;;;;;;3.22;2.55;;;17.20;99.90;;;;;;5058997;28;20028;-88
2021/07/11 00:58:55;;;;;;;3.90;2.67;;;17.20;99.90;;;;;;5059002;28;20402;-86
2021/07/11 01:01:36;;;;;;;4.78;2.53;;;17.20;99.90;;;;;;5058907;28;20124;-87
2021/07/11 01:04:23;;;;;;;3.55;2.85;;;17.10;99.90;;;;;;5058879;28;20518;-87
2021/07/11 01:06:53;;;;;;;5.03;3.15;;;17.20;99.90;;;;;;5057790;28;20397;-90
2021/07/11 01:09:32;;;;;;;3.38;2.58;;;17.10;99.90;;;;;;5058973;28;20031;-88
2021/07/11 01:12:06;;;;;;;2.83;2.60;;;17.10;99.90;;;;;;5058950;28;20471;-86
2021/07/11 01:14:33;;;;;;;3.65;2.83;;;17.10;99.90;;;;;;5058586;28;20065;-88
2021/07/11 01:17:02;;;;;;;3.28;2.72;;;17.10;99.90;;;;;;5058696;28;20025;-90
2021/07/11 01:19:49;;;;;;;3.08;2.55;;;17.20;99.90;;;;;;5058887;28;20361;-89
2021/07/11 01:22:19;;;;;;;2.97;2.45;;;17.20;99.90;;;;;;5058429;28;20119;-89
2021/07/11 01:25:07;;;;;;;3.15;2.85;;;17.30;99.90;;;;;;5058924;28;20053;-88
2021/07/11 01:27:34;;;;;;;3.38;2.85;;;17.20;99.90;;;;;;5058737;28;20016;-89
2021/07/11 01:30:01;;;;;;;3.00;2.70;;;17.20;99.90;;;;;;5058275;28;20884;-88
2021/07/11 01:32:28;;;;;;;3.28;2.95;;;17.20;99.90;;;;;;5058305;28;20365;-88
2021/07/11 01:34:55;;;;;;;2.67;2.30;;;17.20;99.90;;;;;;5058082;28;20065;-88
2021/07/11 01:37:22;;;;;;;5.35;2.40;;;17.30;99.90;;;;;;5058252;28;20028;-88
2021/07/11 01:39:48;;;;;;;2.50;2.30;;;17.40;99.90;;;;;;5058226;28;20047;-89
2021/07/11 01:42:16;;;;;;;6.15;2.50;;;17.50;99.90;;;;;;5058129;28;20067;-87
2021/07/11 01:44:42;;;;;;;3.33;2.60;;;17.50;99.90;;;;;;5058066;28;20017;-87
2021/07/11 01:47:08;;;;;;;2.38;2.17;;;17.60;99.90;;;;;;5057918;28;20029;-87
2021/07/11 01:49:35;;;;;;;6.68;2.40;;;17.70;99.90;;;;;;5058119;28;20025;-87
2021/07/11 01:52:03;;;;;;;2.58;2.38;;;17.70;99.90;;;;;;5058022;28;20052;-89
2021/07/11 01:54:30;;;;;;;4.78;2.42;;;17.70;99.90;;;;;;5058015;28;20025;-89
2021/07/11 01:56:56;;;;;;;2.55;2.35;;;17.70;99.90;;;;;;5058020;28;20031;-88
2021/07/11 01:59:22;;;;;;;2.78;2.45;;;17.70;99.90;;;;;;5057817;28;20107;-87
2021/07/11 02:01:47;;;;;;;3.05;2.50;;;17.60;99.90;;;;;;5057552;28;20476;-87
2021/07/11 02:04:13;;;;;;;3.83;2.70;;;17.50;99.90;;;;;;5057889;28;20052;-86
2021/07/11 02:06:41;;;;;;;3.17;2.40;;;17.50;99.90;;;;;;5057971;28;20025;-88
2021/07/11 02:09:09;;;;;;;3.83;2.33;;;17.50;99.90;;;;;;5057681;28;20021;-86
2021/07/11 02:11:37;;;;;;;3.22;2.38;;;17.50;99.90;;;;;;5057491;28;20056;-88
2021/07/11 02:14:12;;;;;;;2.40;2.20;;;17.50;99.90;;;;;;5057439;28;20036;-88
2021/07/11 02:16:42;;;;;;;2.40;1.98;;;17.40;99.90;;;;;;5057501;28;20074;-88
2021/07/11 02:19:08;;;;;;;2.42;2.10;;;17.40;99.90;;;;;;5057254;28;20039;-88
2021/07/11 02:21:37;;;;;;;3.67;2.30;;;17.40;99.90;;;;;;5057293;28;20037;-87
2021/07/11 02:24:05;;;;;;;5.13;2.17;;;17.40;99.90;;;;;;5057244;28;20460;-88
2021/07/11 02:26:32;;;;;;;3.85;2.40;;;17.30;99.90;;;;;;5057338;28;20024;-87
2021/07/11 02:28:59;;;;;;;3.85;2.28;;;17.30;99.90;;;;;;5056739;28;20031;-88
2021/07/11 02:31:27;;;;;;;5.28;2.30;;;17.30;99.90;;;;;;5057383;28;20020;-87
2021/07/11 02:33:54;;;;;;;6.22;2.22;;;17.20;99.90;;;;;;5057537;28;20086;-89
2021/07/11 02:36:23;;;;;;;2.42;2.22;;;17.20;99.90;;;;;;5057379;28;20060;-87
2021/07/11 02:38:58;;;;;;;3.33;2.40;;;17.10;99.90;;;;;;5057374;28;20031;-88
2021/07/11 02:41:28;;;;;;;3.85;2.38;;;17.00;99.90;;;;;;5057307;28;20467;-89
2021/07/11 02:43:57;;;;;;;4.35;2.83;;;17.00;99.90;;;;;;5056861;28;20032;-87
2021/07/11 02:46:29;;;;;;;3.63;2.80;;;17.00;99.90;;;;;;5057137;28;20134;-88
2021/07/11 02:48:56;;;;;;;3.42;2.20;;;17.00;99.90;;;;;;5056986;28;20048;-88
2021/07/11 02:51:27;;;;;;;4.05;2.70;;;17.00;99.90;;;;;;5056949;28;20025;-88
2021/07/11 02:53:56;;;;;;;6.78;2.78;;;17.10;99.90;;;;;;5056730;28;20067;-88
2021/07/11 02:56:23;;;;;;;3.15;2.30;;;17.10;99.90;;;;;;5056790;28;20087;-88
2021/07/11 02:58:51;;;;;;;3.22;2.10;;;17.10;99.90;;;;;;5056664;28;20035;-88
2021/07/11 03:01:18;;;;;;;5.55;2.90;;;17.10;99.90;;;;;;5056572;28;20395;-88
2021/07/11 03:03:44;;;;;;;3.35;2.50;;;17.10;99.90;;;;;;5056608;28;20027;-88
2021/07/11 03:06:12;;;;;;;3.13;2.20;;;17.10;99.90;;;;;;5056659;28;20119;-89
2021/07/11 03:08:38;;;;;;;5.18;2.45;;;17.00;99.90;;;;;;5056627;28;20025;-88
2021/07/11 03:11:05;;;;;;;3.40;2.17;;;17.00;99.90;;;;;;5056393;28;20051;-90
2021/07/11 03:13:33;;;;;;;4.78;2.15;;;16.90;99.90;;;;;;5056487;28;20032;-89
2021/07/11 03:16:00;;;;;;;2.50;2.20;;;16.90;99.90;;;;;;5056435;28;20123;-89
2021/07/11 03:18:28;;;;;;;4.65;2.30;;;16.90;99.90;;;;;;5056634;28;20050;-89
2021/07/11 03:20:54;;;;;;;6.30;3.00;;;16.80;99.90;;;;;;5056230;28;20032;-88
2021/07/11 03:23:20;;;;;;;5.43;2.60;;;16.90;99.90;;;;;;5056432;28;20059;-87
2021/07/11 03:25:51;;;;;;;5.07;2.53;;;16.90;99.90;;;;;;5056460;28;20020;-89
2021/07/11 03:28:19;;;;;;;7.88;3.03;;;16.80;99.90;;;;;;5056316;28;20078;-90
2021/07/11 03:30:48;;;;;;;5.40;2.40;;;16.80;99.90;;;;;;5056241;28;20111;-89
2021/07/11 03:33:15;;;;;;;5.18;2.60;;;16.80;99.90;;;;;;5056255;28;20113;-87
2021/07/11 03:35:48;;;;;;;8.40;2.47;;;16.90;99.90;;;;;;5056214;28;20028;-88
2021/07/11 03:38:18;;;;;;;5.90;2.63;;;16.90;99.90;;;;;;5056275;28;20115;-87
2021/07/11 03:40:46;;;;;;;3.65;2.65;;;16.90;99.90;;;;;;5055115;28;20016;-90
2021/07/11 03:43:14;;;;;;;3.50;2.50;;;16.90;99.90;;;;;;5056112;28;20433;-90
2021/07/11 03:45:42;;;;;;;4.65;3.00;;;16.90;99.90;;;;;;5055986;28;20027;-88
2021/07/11 03:48:13;;;;;;;6.78;2.72;;;17.10;99.90;;;;;;5055976;28;20025;-88
2021/07/11 03:50:41;;;;;;;5.72;2.90;;;17.10;99.90;;;;;;5056047;28;20029;-87
2021/07/11 03:53:09;;;;;;;5.72;3.20;;;17.10;99.90;;;;;;5056131;28;20024;-87
2021/07/11 03:55:36;;;;;;;4.68;3.30;;;17.20;99.90;;;;;;5056055;28;20380;-89
2021/07/11 03:58:04;;;;;;;4.93;3.10;;;17.20;99.90;;;;;;5055950;28;20475;-89
2021/07/11 04:00:30;;;;;;;5.05;3.22;;;17.30;99.90;;;;;;5055962;28;20073;-87
2021/07/11 04:03:00;;;;;;;6.35;2.80;;;17.30;99.90;;;;;;5055983;28;20028;-86
2021/07/11 04:05:30;;;;;;;5.60;3.33;;;17.30;99.90;;;;;;5055811;28;20020;-88
2021/07/11 04:07:58;;;;;;;5.90;3.03;;;17.40;99.90;;;;;;5055763;28;20031;-88
2021/07/11 04:10:26;;;;;;;6.50;2.92;;;17.50;99.90;;;;;;5055800;28;20099;-87
2021/07/11 04:12:57;;;;;;;4.45;2.58;;;17.60;99.90;;;;;;5055734;28;20078;-89
2021/07/11 04:15:24;;;;;;;8.50;2.80;;;17.70;99.90;;;;;;5055681;28;20126;-89
2021/07/11 04:17:51;;;;;;;3.20;2.40;;;17.80;99.90;;;;;;5055719;28;20455;-89
2021/07/11 04:20:21;;;;;;;2.38;2.10;;;17.80;99.90;;;;;;5055764;28;20051;-87
2021/07/11 04:22:49;;;;;;;5.40;2.30;;;18.00;99.90;;;;;;5055410;28;20056;-88
2021/07/11 04:25:16;;;;;;;3.80;1.95;;;19.10;99.90;;;;;;5055512;28;20017;-88
2021/07/11 04:27:42;;;;;;;4.18;2.03;;;19.80;99.90;;;;;;5055747;28;20029;-87
2021/07/11 04:30:09;;;;;;;4.07;2.30;;;20.20;99.90;;;;;;5058856;28;20031;-87
2021/07/11 04:32:36;;;;;;;3.40;1.88;;;20.40;99.90;;;;;;5056081;28;20025;-87
2021/07/11 04:35:02;;;;;;;5.45;1.95;;;20.20;99.90;;;;;;5063843;28;20024;-89
2021/07/11 04:37:28;;;;;;;10.40;2.05;;;20.60;99.90;;;;;;5056633;28;20115;-88
2021/07/11 04:39:54;;;;;;;3.38;1.75;;;20.90;99.90;;;;;;5055667;28;20070;-83
2021/07/11 04:42:19;;;;;;;4.88;2.00;;;21.00;98.90;;;;;;5055257;28;20043;-85
2021/07/11 04:44:46;;;;;;;2.78;1.40;;;20.80;98.90;;;;;;5055395;28;20028;-83
2021/07/11 04:47:13;;;;;;;3.15;1.63;;;20.80;99.00;;;;;;5055385;28;20131;-84
2021/07/11 04:49:40;;;;;;;8.63;1.60;;;20.70;99.30;;;;;;5055148;28;20035;-84
2021/07/11 04:52:06;;;;;;;2.63;1.50;;;20.90;99.10;;;;;;5055481;28;20115;-86
2021/07/11 04:54:33;;;;;;;1.65;1.20;;;21.00;98.70;;;;;;5058735;28;20029;-84
2021/07/11 04:56:59;;;;;;;3.92;1.55;;;21.10;97.80;;;;;;5058663;28;20027;-84
2021/07/11 04:59:24;;;;;;;2.65;1.10;;;20.80;98.40;;;;;;5058876;28;20024;-83
2021/07/11 05:01:50;;;;;;;2.47;1.30;;;21.00;98.90;;;;;;5058688;28;20024;-86
2021/07/11 05:04:16;;;;;;;2.10;1.40;;;20.90;98.60;;;;;;5058798;28;20436;-84
2021/07/11 05:06:42;;;;;;;2.95;1.70;;;20.60;99.40;;;;;;5058804;28;20721;-86
2021/07/11 05:09:08;;;;;;;3.45;1.60;;;20.40;99.90;;;;;;5058687;28;20111;-83
2021/07/11 05:11:35;;;;;;;2.75;1.20;;;20.50;99.60;;;;;;5058548;28;20391;-83
2021/07/11 05:14:01;;;;;;;4.22;1.33;;;20.60;99.60;;;;;;5058371;28;20040;-84
2021/07/11 05:16:27;;;;;;;1.90;1.50;;;20.90;99.50;;;;;;5058498;28;20111;-86
2021/07/11 05:18:53;;;;;;;2.20;1.75;;;21.20;98.30;;;;;;5058418;28;20056;-85
2021/07/11 05:21:19;;;;;;;2.60;1.80;;;21.10;98.40;;;;;;5058182;28;20036;-85
2021/07/11 05:23:45;;;;;;;2.22;1.70;;;21.00;98.40;;;;;;5058340;28;20036;-84
2021/07/11 05:26:10;;;;;;;4.32;1.70;;;21.20;97.90;;;;;;5058018;28;20150;-83
2021/07/11 05:28:36;;;;;;;4.63;1.30;;;21.50;96.90;;;;;;5058128;28;20128;-84
2021/07/11 05:31:02;;;;;;;2.65;1.52;;;21.50;96.90;;;;;;5058142;28;20025;-83
2021/07/11 05:33:28;;;;;;;2.97;1.20;;;21.90;95.90;;;;;;5057982;28;20028;-84
2021/07/11 05:35:53;;;;;;;5.00;1.70;;;21.90;95.60;;;;;;5058123;28;20038;-86
2021/07/11 05:38:19;;;;;;;4.20;1.30;;;21.90;95.70;;;;;;5058251;28;20521;-85
2021/07/11 05:40:44;;;;;;;1.67;1.30;;;21.70;96.20;;;;;;5057947;28;20101;-86
2021/07/11 05:43:10;;;;;;;2.55;1.48;;;21.70;96.20;;;;;;5057942;28;20123;-86
2021/07/11 05:45:36;;;;;;;2.92;1.40;;;21.70;96.40;;;;;;5057988;28;20123;-84
2021/07/11 05:48:02;;;;;;;2.10;1.15;;;21.90;96.20;;;;;;5058559;28;20024;-84
2021/07/11 05:50:28;;;;;;;2.17;1.48;;;22.10;95.50;;;;;;5057924;28;20511;-85
2021/07/11 05:52:53;;;;;;;3.50;1.40;;;22.10;95.50;;;;;;5058032;28;20109;-84
2021/07/11 05:55:19;;;;;;;5.20;1.65;;;22.00;95.50;;;;;;5057935;28;20361;-85
2021/07/11 05:57:45;;;;;;;2.78;1.40;;;22.10;95.50;;;;;;5057744;28;20081;-83
2021/07/11 06:00:11;;;;;;;5.22;1.88;;;22.10;94.90;;;;;;5057859;28;20147;-86
2021/07/11 06:02:37;;;;;;;3.70;1.63;;;22.00;94.40;;;;;;5057423;28;20032;-86
2021/07/11 06:05:04;;;;;;;10.73;9.02;;;22.00;94.60;;;;;;5056448;28;20079;-86
2021/07/11 06:07:30;;;;;;;4.90;2.42;;;22.00;94.00;;;;;;5057319;28;20029;-86
2021/07/11 06:09:57;;;;;;;3.83;2.00;;;22.10;94.80;;;;;;5057551;28;20111;-84
2021/07/11 06:12:23;;;;;;;3.70;1.98;;;22.00;94.50;;;;;;5057105;28;20048;-85
2021/07/11 06:14:49;;;;;;;8.48;7.50;;;22.00;94.00;;;;;;5053745;28;20135;-87
2021/07/11 06:17:15;;;;;;;2.00;1.30;;;22.10;94.70;;;;;;5054057;28;20033;-88
2021/07/11 06:19:41;;;;;;;4.90;1.10;;;22.10;93.90;;;;;;5053055;28;20024;-80
2021/07/11 06:22:07;;;;;;;3.10;1.00;;;22.20;93.60;;;;;;5052426;28;20491;-86
2021/07/11 06:24:33;;;;;;;5.00;1.92;;;22.20;93.50;;;;;;5052661;28;20029;-80
2021/07/11 06:26:59;;;;;;;7.65;4.07;;;22.20;93.30;;;;;;5052565;28;20025;-79
2021/07/11 06:29:24;;;;;;;3.40;0.85;;;22.10;93.70;;;;;;5052467;28;20464;-86
2021/07/11 06:31:50;;;;;;;3.08;1.90;;;22.20;94.40;;;;;;5052541;28;20447;-87
2021/07/11 06:34:15;;;;;;;2.55;1.40;;;22.20;94.60;;;;;;5052485;28;20027;-79
2021/07/11 06:36:41;;;;;;;8.10;7.28;;;22.40;95.00;;;;;;5051783;28;20143;-79
2021/07/11 06:39:07;;;;;;;2.63;1.00;;;22.60;95.00;;;;;;5052203;28;20025;-79
2021/07/11 06:41:33;;;;;;;1.45;0.90;;;22.70;94.50;;;;;;5053143;28;20059;-81
2021/07/11 06:44:00;;;;;;;6.95;6.25;;;22.90;93.70;;;;;;5053557;28;20543;-85
2021/07/11 06:46:25;;;;;;;3.35;1.70;;;22.90;93.20;;;;;;5053511;28;20025;-81
2021/07/11 06:48:51;;;;;;;5.70;1.05;;;22.90;93.10;;;;;;5052988;28;20028;-84
2021/07/11 06:51:18;;;;;;;6.65;2.35;;;23.10;93.60;;;;;;5052120;28;20075;-84
2021/07/11 06:53:44;;;;;;;2.33;1.38;;;23.20;92.90;;;;;;5053364;28;20009;-84
2021/07/11 06:56:10;;;;;;;4.45;1.40;;;23.20;93.40;;;;;;5052149;28;20029;-84
2021/07/11 06:58:36;;;;;;;3.00;0.90;;;23.20;94.10;;;;;;5051940;28;20482;-84
2021/07/11 07:01:01;;;;;;;1.60;1.08;;;23.20;94.20;;;;;;5051821;28;20039;-84
2021/07/11 07:03:27;;;;;;;5.95;1.20;;;23.10;94.90;;;;;;5051856;28;20464;-85
2021/07/11 07:05:54;;;;;;;5.93;1.42;;;23.10;95.50;;;;;;5052189;28;20142;-85
2021/07/11 07:08:20;;;;;;;3.95;1.00;;;23.20;95.90;;;;;;5052131;28;20083;-85
2021/07/11 07:10:45;;;;;;;0.90;0.70;;;23.40;93.90;;;;;;5051906;28;20067;-85
2021/07/11 07:13:11;;;;;;;3.35;0.75;;;23.70;91.10;;;;;;5051746;28;20029;-85
2021/07/11 07:15:37;;;;;;;1.30;0.68;;;24.10;92.20;;;;;;5051572;28;20477;-85
2021/07/11 07:18:03;;;;;;;0.77;0.55;;;24.50;87.40;;;;;;5051560;28;20460;-84
2021/07/11 07:20:29;;;;;;;0.60;0.40;;;25.00;85.00;;;;;;5051759;28;20031;-85
2021/07/11 07:22:55;;;;;;;1.15;0.40;;;25.30;83.50;;;;;;5051659;28;20186;-85
2021/07/11 07:25:20;;;;;;;0.77;0.50;;;25.60;79.60;;;;;;5051584;28;20039;-85
2021/07/11 07:27:47;;;;;;;1.88;0.50;;;25.90;76.90;;;;;;5051508;28;20078;-85
2021/07/11 07:30:18;;;;;;;2.60;0.50;;;25.90;77.00;;;;;;5051912;28;20360;-80
2021/07/11 07:32:48;;;;;;;1.38;0.88;;;25.90;74.80;;;;;;5052686;28;20396;-82
2021/07/11 07:35:14;;;;;;;2.45;0.47;;;25.80;74.10;;;;;;5052342;28;20025;-81
2021/07/11 07:37:40;;;;;;;0.80;0.40;;;25.60;72.50;;;;;;5052701;28;20203;-83
2021/07/11 07:40:06;;;;;;;2.15;0.73;;;25.10;71.70;;;;;;5052583;28;20432;-83
2021/07/11 07:42:33;;;;;;;3.42;0.65;;;24.80;74.10;;;;;;5052703;28;20029;-82
2021/07/11 07:44:59;;;;;;;3.63;0.77;;;24.70;76.00;;;;;;5052601;28;20021;-79
2021/07/11 07:47:25;;;;;;;1.48;0.60;;;24.40;76.80;;;;;;5052459;28;20112;-80
2021/07/11 07:49:51;;;;;;;1.65;0.40;;;24.00;77.60;;;;;;5052485;28;20058;-80
2021/07/11 07:52:17;;;;;;;2.67;0.60;;;23.90;79.50;;;;;;5052584;28;20104;-80
2021/07/11 07:54:43;;;;;;;2.10;0.68;;;23.60;78.60;;;;;;5052486;28;20021;-82
2021/07/11 07:57:09;;;;;;;3.03;0.68;;;23.30;81.10;;;;;;5052518;28;20354;-82
2021/07/11 07:59:35;;;;;;;1.13;0.50;;;23.30;81.90;;;;;;5052459;28;20028;-84
2021/07/11 08:02:02;;;;;;;2.65;0.65;;;23.20;82.10;;;;;;5051655;28;20123;-84
2021/07/11 08:04:28;;;;;;;2.15;0.60;;;22.80;82.80;;;;;;5052339;28;20025;-83
2021/07/11 08:06:54;;;;;;;1.27;0.70;;;22.90;84.60;;;;;;5052023;28;20033;-80
2021/07/11 08:09:19;;;;;;;4.93;0.60;;;22.90;84.70;;;;;;5052411;28;20021;-81
2021/07/11 08:11:45;;;;;;;1.08;0.80;;;22.80;84.10;;;;;;5052218;28;20031;-86
2021/07/11 08:14:11;;;;;;;2.30;1.00;;;22.90;84.90;;;;;;5040680;28;20057;-81
2021/07/11 08:16:37;;;;;;;1.83;0.50;;;23.00;83.70;;;;;;5032540;28;20021;-79
2021/07/11 08:19:03;;;;;;;0.80;0.50;;;22.90;82.70;;;;;;5032310;28;20025;-82
2021/07/11 08:21:29;;;;;;;0.80;0.60;;;22.90;83.60;;;;;;5032386;28;20026;-81
2021/07/11 08:23:56;;;;;;;2.33;0.70;;;22.80;84.50;;;;;;5032553;28;20028;-82
2021/07/11 08:26:21;;;;;;;1.15;0.55;;;22.90;84.70;;;;;;5032490;28;20070;-82
2021/07/11 08:28:47;;;;;;;1.38;0.70;;;22.80;84.70;;;;;;5035626;28;20123;-82
2021/07/11 08:31:13;;;;;;;2.17;0.90;;;22.80;86.00;;;;;;5036090;28;20037;-82
2021/07/11 08:33:38;;;;;;;1.45;1.05;;;22.90;85.50;;;;;;5035864;28;20029;-81
2021/07/11 08:36:04;;;;;;;1.55;0.80;;;22.80;85.50;;;;;;5035858;28;20083;-82
2021/07/11 08:38:30;;;;;;;0.93;0.52;;;22.70;86.30;;;;;;5035905;28;20026;-83
2021/07/11 08:40:56;;;;;;;1.08;0.85;;;22.70;87.80;;;;;;5036071;28;20029;-82
2021/07/11 08:43:23;;;;;;;1.38;0.75;;;22.70;86.40;;;;;;5035901;28;20037;-83
2021/07/11 08:45:49;;;;;;;2.20;1.08;;;22.60;86.50;;;;;;5036265;28;20484;-82
2021/07/11 08:48:15;;;;;;;1.00;0.80;;;22.60;86.30;;;;;;5036353;28;20036;-81
2021/07/11 08:50:40;;;;;;;1.42;0.68;;;22.60;85.60;;;;;;5035876;28;20056;-82
2021/07/11 08:53:14;;;;;;;1.92;1.00;;;22.60;85.40;;;;;;5035813;28;20021;-82
2021/07/11 08:55:40;;;;;;;3.92;0.90;;;22.70;85.20;;;;;;5035705;28;20029;-83
2021/07/11 08:58:05;;;;;;;4.63;1.00;;;22.70;84.60;;;;;;5035799;28;20029;-81
2021/07/11 09:00:33;;;;;;;1.58;1.00;;;22.80;84.80;;;;;;5035626;28;20026;-83
2021/07/11 09:03:00;;;;;;;1.60;1.00;;;22.90;85.20;;;;;;5035738;28;20076;-81
2021/07/11 09:05:29;;;;;;;1.65;0.80;;;22.90;84.50;;;;;;5035724;28;20033;-82
2021/07/11 09:08:08;;;;;;;1.60;1.13;;;23.00;85.30;;;;;;5035772;28;20048;-79
2021/07/11 09:10:37;;;;;;;1.60;1.10;;;23.00;85.80;;;;;;5035691;28;20029;-82
2021/07/11 09:13:08;;;;;;;2.15;1.10;;;23.20;84.40;;;;;;5035457;28;20495;-80
2021/07/11 09:15:36;;;;;;;1.17;0.98;;;23.50;84.10;;;;;;5035249;28;20053;-79
2021/07/11 09:18:03;;;;;;;5.88;1.23;;;23.90;81.40;;;;;;5035158;28;20028;-80
2021/07/11 09:20:29;;;;;;;2.88;0.95;;;24.30;80.90;;;;;;5034584;28;20509;-78
2021/07/11 09:22:57;;;;;;;2.83;1.23;;;24.50;78.80;;;;;;5034628;28;20124;-86
2021/07/11 09:25:23;;;;;;;3.58;1.00;;;24.50;77.70;;;;;;5034878;28;20026;-79
2021/07/11 09:27:49;;;;;;;1.85;0.90;;;24.30;77.50;;;;;;5034967;28;20080;-77
2021/07/11 09:30:17;;;;;;;2.17;1.10;;;24.20;76.90;;;;;;5035049;28;20026;-79
2021/07/11 09:32:43;;;;;;;2.65;0.93;;;24.20;78.60;;;;;;5034558;28;20045;-78
2021/07/11 09:35:19;;;;;;;2.30;0.80;;;24.20;76.90;;;;;;5034843;28;20366;-82
2021/07/11 09:37:47;;;;;;;2.40;1.10;;;23.90;77.00;;;;;;5034969;28;20053;-84
2021/07/11 09:40:17;;;;;;;1.95;0.70;;;24.00;77.80;;;;;;5038121;28;20049;-85
2021/07/11 09:42:51;;;;;;;3.90;1.10;;;23.90;77.30;;;;;;5039423;28;20064;-80
2021/07/11 09:45:22;;;;;;;3.72;1.17;;;24.00;77.60;;;;;;5027643;28;20144;-80
2021/07/11 09:47:51;;;;;;;1.90;1.10;;;23.90;77.10;;;;;;5034235;28;20029;-79
2021/07/11 09:50:23;;;;;;;2.05;0.88;;;23.90;78.40;;;;;;5034607;28;20021;-79
2021/07/11 09:52:52;;;;;;;1.13;0.82;;;23.80;78.90;;;;;;5034469;28;20026;-82
2021/07/11 09:55:27;;;;;;;4.95;0.93;;;23.80;79.00;;;;;;5018510;28;20514;-80
2021/07/11 09:58:02;;;;;;;2.03;1.20;;;23.80;80.40;;;;;;5034111;28;20135;-79
2021/07/11 10:00:38;;;;;;;2.28;0.90;;;23.80;80.40;;;;;;5034403;28;20021;-80
2021/07/11 10:03:08;;;;;;;1.85;0.88;;;23.90;80.00;;;;;;5034438;28;20512;-82
2021/07/11 10:05:34;;;;;;;1.75;0.90;;;24.00;79.10;;;;;;5034402;28;20044;-80
2021/07/11 10:08:00;;;;;;;1.10;0.90;;;23.90;79.90;;;;;;5034653;28;20029;-81
2021/07/11 10:10:29;;;;;;;1.73;0.90;;;23.80;79.50;;;;;;5034597;28;20024;-81
2021/07/11 10:12:57;;;;;;;1.90;1.02;;;23.80;80.50;;;;;;5034636;28;20502;-86
2021/07/11 10:15:28;;;;;;;2.10;0.93;;;23.80;81.60;;;;;;5034211;28;20045;-83
2021/07/11 10:18:18;;;;;;;2.58;0.93;;;23.90;80.60;;;;;;5034005;28;20425;-81
2021/07/11 10:20:49;;;;;;;1.35;0.85;;;23.70;80.50;;;;;;5033400;28;20033;-83
2021/07/11 10:23:32;;;;;;;1.85;0.80;;;23.50;82.30;;;;;;5034084;28;20037;-82
2021/07/11 10:26:11;;;;;;;2.53;1.10;;;23.60;83.00;;;;;;5034250;28;20492;-82
2021/07/11 10:28:39;;;;;;;2.85;1.00;;;23.50;82.50;;;;;;5034087;28;20116;-82
2021/07/11 10:31:05;;;;;;;2.63;0.98;;;23.50;82.90;;;;;;5033721;28;20030;-80
2021/07/11 10:33:43;;;;;;;2.05;1.00;;;23.20;84.30;;;;;;5034151;28;20026;-81
2021/07/11 10:36:09;;;;;;;3.17;1.10;;;23.30;84.80;;;;;;5034212;28;20049;-83
2021/07/11 10:38:55;;;;;;;2.50;1.00;;;23.10;85.00;;;;;;5033777;28;20025;-83
2021/07/11 10:41:24;;;;;;;3.60;1.02;;;23.20;85.30;;;;;;5033621;28;20029;-82
2021/07/11 10:44:17;;;;;;;2.90;0.98;;;23.40;85.60;;;;;;5033937;28;20392;-80
2021/07/11 10:46:55;;;;;;;1.35;0.88;;;23.50;84.90;;;;;;5033748;28;20033;-81
2021/07/11 10:49:23;;;;;;;1.30;1.00;;;23.70;84.50;;;;;;5033596;28;20029;-79
2021/07/11 10:51:49;;;;;;;3.88;1.00;;;23.90;83.40;;;;;;5032888;28;20022;-80
2021/07/11 10:54:36;;;;;;;1.25;0.80;;;24.10;82.70;;;;;;5033653;28;20142;-79
2021/07/11 10:57:03;;;;;;;1.90;1.00;;;24.10;83.40;;;;;;5033709;28;20031;-80
2021/07/11 10:59:29;;;;;;;1.67;0.80;;;24.30;83.40;;;;;;5033422;28;20056;-79
2021/07/11 11:01:55;;;;;;;2.03;0.93;;;24.50;82.80;;;;;;5033044;28;20469;-80
2021/07/11 11:04:21;;;;;;;3.25;0.95;;;24.90;82.00;;;;;;5033491;28;20026;-80
2021/07/11 11:06:48;;;;;;;1.58;1.10;;;25.30;79.90;;;;;;5033203;28;20056;-79
2021/07/11 11:09:35;;;;;;;2.55;0.82;;;25.10;79.30;;;;;;5033425;28;20033;-81
2021/07/11 11:12:01;;;;;;;2.55;0.90;;;25.60;81.30;;;;;;5033264;28;20040;-81
2021/07/11 11:14:27;;;;;;;0.80;0.70;;;25.90;78.10;;;;;;5033406;28;20049;-81
2021/07/11 11:16:53;;;;;;;1.80;1.10;;;26.00;74.90;;;;;;5032894;28;20025;-80
2021/07/11 11:19:24;;;;;;;2.00;1.20;;;26.10;75.70;;;;;;5033018;28;20021;-80
2021/07/11 11:21:54;;;;;;;2.67;0.90;;;25.90;74.00;;;;;;5032827;28;20026;-80
2021/07/11 11:24:20;;;;;;;1.05;0.95;;;26.00;73.90;;;;;;5032836;28;20086;-79
2021/07/11 11:26:45;;;;;;;2.28;0.90;;;25.60;74.20;;;;;;5032972;28;20081;-79
2021/07/11 11:29:12;;;;;;;1.95;0.90;;;25.80;75.70;;;;;;5033076;28;20025;-80
2021/07/11 11:31:37;;;;;;;1.55;1.02;;;25.60;74.60;;;;;;5032900;28;20421;-79
2021/07/11 11:34:12;;;;;;;4.00;1.40;;;25.70;76.00;;;;;;5032823;28;20025;-80
2021/07/11 11:36:47;;;;;;;2.40;1.15;;;25.60;75.30;;;;;;5032816;28;20025;-79
2021/07/11 11:39:22;;;;;;;1.23;1.00;;;25.50;74.70;;;;;;5032685;28;20033;-79
2021/07/11 11:41:48;;;;;;;1.58;0.98;;;25.50;75.00;;;;;;5032620;28;20033;-81
2021/07/11 11:44:22;;;;;;;1.30;1.20;;;25.60;75.20;;;;;;5032517;28;20492;-80
2021/07/11 11:46:50;;;;;;;3.20;0.90;;;25.50;74.30;;;;;;5032655;28;20025;-80
2021/07/11 11:49:18;;;;;;;3.30;1.23;;;25.40;75.10;;;;;;5032510;28;20380;-81
2021/07/11 11:51:50;;;;;;;1.90;1.30;;;25.40;76.20;;;;;;5032540;28;20018;-80
2021/07/11 11:54:24;;;;;;;1.45;0.90;;;25.60;77.30;;;;;;5032725;28;20026;-80
2021/07/11 11:56:50;;;;;;;2.10;1.10;;;25.80;76.00;;;;;;5032562;28;20025;-80
2021/07/11 11:59:16;;;;;;;4.03;1.15;;;25.60;75.80;;;;;;5032715;28;20029;-80
2021/07/11 12:01:41;;;;;;;1.60;0.93;;;25.80;76.20;;;;;;5031595;28;20029;-80
2021/07/11 12:04:17;;;;;;;1.77;1.13;;;25.90;77.20;;;;;;5033547;28;20022;-80
2021/07/11 12:06:46;;;;;;;;;;;25.80;77.10;;;;;;5032940;28;20083;-79
2021/07/11 12:09:12;;;;;;;2.35;1.40;;;25.70;78.40;;;;;;5032642;28;19909;-80
2021/07/11 12:11:39;;;;;;;2.17;1.30;;;26.00;78.20;;;;;;5032566;28;20097;-80
2021/07/11 12:14:06;;;;;;;2.30;1.35;;;26.00;77.70;;;;;;5032239;28;20136;-81
2021/07/11 12:16:32;;;;;;;2.72;1.23;;;26.10;78.80;;;;;;5033555;28;20022;-80
2021/07/11 12:18:58;;;;;;;2.50;1.23;;;26.00;77.10;;;;;;5032328;28;20029;-79
2021/07/11 12:21:26;;;;;;;1.90;1.30;;;26.10;79.50;;;;;;5032139;28;20026;-84
2021/07/11 12:24:11;;;;;;;1.50;1.40;;;26.10;76.90;;;;;;5032293;28;20033;-79
2021/07/11 12:26:47;;;;;;;2.00;1.30;;;26.10;78.40;;;;;;5032316;28;20025;-79
2021/07/11 12:29:19;;;;;;;2.55;1.30;;;26.20;78.60;;;;;;5033318;28;20104;-79
2021/07/11 12:31:46;;;;;;;5.30;1.60;;;26.30;76.70;;;;;;5033266;28;20024;-81
2021/07/11 12:34:16;;;;;;;3.05;1.50;;;26.10;75.90;;;;;;5031943;28;20021;-81
2021/07/11 12:36:53;;;;;;;3.40;1.63;;;26.10;77.70;;;;;;5032106;28;20087;-80
2021/07/11 12:39:23;;;;;;;2.17;1.30;;;26.20;76.90;;;;;;5032171;28;20053;-79
2021/07/11 12:41:50;;;;;;;1.83;1.55;;;26.50;76.10;;;;;;5032114;28;20076;-81
2021/07/11 12:44:17;;;;;;;2.78;1.70;;;26.40;75.10;;;;;;5031976;28;20022;-81
2021/07/11 12:46:44;;;;;;;1.75;1.20;;;26.40;75.10;;;;;;5032159;28;20029;-82
2021/07/11 12:49:15;;;;;;;1.70;1.30;;;26.60;75.00;;;;;;5032031;28;20083;-79
2021/07/11 12:51:48;;;;;;;2.47;1.50;;;26.60;73.20;;;;;;5032060;28;20083;-81